Time;durP1;ratioP1;P1;durP2;ratioP2;P2;SDS_P1;SDS_P2;PMS_P1;PMS_P2;Temp;Humidity;BMP_temperature;BMP_pressure;BME280_temperature;BME280_humidity;BME280_pressure;Samples;Min_cycle;Max_cycle;Signal;HPM_P1;HPM_P2
2024/01/03 00:00:29;;;;;;;8.73;2.93;;;-17.40;99.90;;;;;;4973335;28;20204;-80
2024/01/03 00:02:57;;;;;;;6.20;2.77;;;-17.50;99.90;;;;;;4950227;29;20235;-81
2024/01/03 00:05:45;;;;;;;10.33;2.77;;;-17.60;99.90;;;;;;4973010;28;20254;-79
2024/01/03 00:08:26;;;;;;;5.97;2.37;;;-17.20;99.90;;;;;;4972662;28;20231;-81
2024/01/03 00:10:56;;;;;;;6.40;2.70;;;-17.10;99.90;;;;;;4973004;28;20192;-81
2024/01/03 00:13:29;;;;;;;8.37;2.87;;;-17.10;99.90;;;;;;4954818;28;20283;-80
2024/01/03 00:16:22;;;;;;;8.87;2.93;;;-17.20;99.90;;;;;;4970115;28;20251;-80
2024/01/03 00:18:52;;;;;;;7.53;2.90;;;-17.70;99.90;;;;;;4972967;28;20246;-80
2024/01/03 00:21:25;;;;;;;9.67;2.87;;;-17.50;99.90;;;;;;4972998;28;20203;-80
2024/01/03 00:23:55;;;;;;;9.77;3.40;;;-17.50;99.90;;;;;;4972549;28;20187;-79
2024/01/03 00:26:24;;;;;;;11.43;3.20;;;-17.40;99.90;;;;;;4972858;28;20192;-80
2024/01/03 00:28:52;;;;;;;6.20;2.33;;;-17.20;99.90;;;;;;4964081;28;20188;-81
2024/01/03 00:31:38;;;;;;;6.20;2.93;;;-17.50;99.90;;;;;;4972537;28;20192;-80
2024/01/03 00:34:36;;;;;;;8.87;2.83;;;-17.80;99.90;;;;;;4971285;28;20196;-80
2024/01/03 00:37:15;;;;;;;11.53;3.17;;;-17.60;99.90;;;;;;4972123;28;20188;-79
2024/01/03 00:39:42;;;;;;;7.07;2.93;;;-17.70;99.90;;;;;;4972098;28;20279;-80
2024/01/03 00:42:10;;;;;;;7.03;2.47;;;-17.70;99.90;;;;;;4972329;28;20192;-80
2024/01/03 00:44:37;;;;;;;10.37;3.77;;;-17.50;99.90;;;;;;4971865;28;20211;-78
2024/01/03 00:47:05;;;;;;;7.47;2.83;;;-17.50;99.90;;;;;;4970881;28;20184;-80
2024/01/03 00:49:34;;;;;;;6.13;2.97;;;-17.70;99.90;;;;;;4933009;28;20255;-80
2024/01/03 00:52:02;;;;;;;6.90;3.13;;;-17.60;99.90;;;;;;4930188;28;20287;-80
2024/01/03 00:54:30;;;;;;;6.00;2.83;;;-17.60;99.90;;;;;;4972362;28;20207;-80
2024/01/03 00:56:59;;;;;;;10.30;3.20;;;-17.60;99.90;;;;;;4970221;28;20247;-79
2024/01/03 00:59:27;;;;;;;9.33;3.00;;;-17.80;99.90;;;;;;4967391;28;20211;-79
2024/01/03 01:01:57;;;;;;;7.33;2.87;;;-17.50;99.90;;;;;;4968252;28;20203;-79
2024/01/03 01:04:24;;;;;;;5.60;2.60;;;-17.70;99.90;;;;;;4971614;28;20226;-80
2024/01/03 01:06:52;;;;;;;10.30;2.87;;;-17.40;99.90;;;;;;4971533;28;20198;-80
2024/01/03 01:09:19;;;;;;;7.63;3.20;;;-17.60;99.90;;;;;;4972585;28;20188;-80
2024/01/03 01:11:46;;;;;;;6.67;2.73;;;-17.60;99.90;;;;;;4971784;28;20192;-80
2024/01/03 01:14:14;;;;;;;7.80;3.20;;;-17.60;99.90;;;;;;4970331;28;20250;-81
2024/01/03 01:16:41;;;;;;;6.17;2.63;;;-17.50;99.90;;;;;;4970222;28;20203;-80
2024/01/03 01:19:09;;;;;;;8.50;2.60;;;-17.60;99.90;;;;;;4953995;28;20202;-80
2024/01/03 01:21:40;;;;;;;7.10;2.77;;;-17.60;99.90;;;;;;4954673;28;20204;-81
2024/01/03 01:24:07;;;;;;;10.07;3.27;;;-17.60;99.90;;;;;;4971237;28;20192;-81
2024/01/03 01:26:36;;;;;;;7.50;2.70;;;-17.50;99.90;;;;;;4970071;28;20208;-80
2024/01/03 01:29:04;;;;;;;6.43;2.87;;;-17.50;99.90;;;;;;4970381;28;20660;-82
2024/01/03 01:31:31;;;;;;;9.90;2.97;;;-17.70;99.90;;;;;;4953586;28;20235;-81
2024/01/03 01:33:59;;;;;;;7.63;2.63;;;-17.60;99.90;;;;;;4971306;28;20654;-79
2024/01/03 01:36:27;;;;;;;7.20;2.67;;;-18.00;99.90;;;;;;4945258;28;20208;-80
2024/01/03 01:38:54;;;;;;;8.00;2.83;;;-18.10;99.90;;;;;;4971404;28;20199;-80
2024/01/03 01:41:22;;;;;;;8.63;2.67;;;-17.90;99.90;;;;;;4971157;28;20540;-82
2024/01/03 01:43:49;;;;;;;7.87;3.07;;;-17.70;99.90;;;;;;4971005;28;20202;-79
2024/01/03 01:46:17;;;;;;;7.13;2.83;;;-17.90;99.90;;;;;;4970822;28;20211;-80
2024/01/03 01:48:46;;;;;;;10.23;2.87;;;-17.90;99.90;;;;;;4970700;28;20199;-80
2024/01/03 01:51:14;;;;;;;10.93;3.27;;;-18.00;99.90;;;;;;4970361;28;20705;-81
2024/01/03 01:53:42;;;;;;;7.73;2.90;;;-17.90;99.90;;;;;;4945232;28;20204;-83
2024/01/03 01:56:11;;;;;;;11.83;3.47;;;-17.70;99.90;;;;;;4946374;28;20645;-79
2024/01/03 01:58:41;;;;;;;7.63;2.60;;;-17.70;99.90;;;;;;4970619;28;20203;-80
2024/01/03 02:01:09;;;;;;;7.07;2.90;;;-18.00;99.90;;;;;;4965963;28;20549;-80
2024/01/03 02:03:37;;;;;;;7.77;3.03;;;-17.90;99.90;;;;;;4970756;28;20199;-80
2024/01/03 02:06:09;;;;;;;8.53;3.40;;;-17.40;99.90;;;;;;4969250;28;20678;-79
2024/01/03 02:08:37;;;;;;;8.07;3.13;;;-18.00;99.90;;;;;;4962015;28;20272;-81
2024/01/03 02:11:04;;;;;;;9.10;2.97;;;-17.60;99.90;;;;;;4938886;28;20193;-81
2024/01/03 02:13:32;;;;;;;6.23;2.80;;;-17.70;99.90;;;;;;4943623;28;20200;-79
2024/01/03 02:16:00;;;;;;;7.33;2.80;;;-17.60;99.90;;;;;;4946872;28;20722;-81
2024/01/03 02:18:28;;;;;;;6.47;2.50;;;-17.60;99.90;;;;;;4953226;28;20191;-80
2024/01/03 02:20:57;;;;;;;6.93;3.03;;;-17.60;99.90;;;;;;4970351;28;20275;-80
2024/01/03 02:23:24;;;;;;;11.63;2.93;;;-17.90;99.90;;;;;;4947080;28;20208;-80
2024/01/03 02:25:52;;;;;;;9.27;3.27;;;-17.70;99.90;;;;;;4961665;28;20670;-80
2024/01/03 02:28:20;;;;;;;7.07;2.80;;;-17.70;99.90;;;;;;4967567;28;20580;-79
2024/01/03 02:30:48;;;;;;;7.43;2.10;;;-17.70;99.90;;;;;;4969198;28;20658;-80
2024/01/03 02:33:15;;;;;;;6.53;3.00;;;-17.80;99.90;;;;;;4936205;28;20196;-81
2024/01/03 02:35:43;;;;;;;7.63;2.50;;;-18.20;99.90;;;;;;4964996;28;20546;-80
2024/01/03 02:38:11;;;;;;;6.67;2.50;;;-18.00;99.90;;;;;;4970422;28;20206;-79
2024/01/03 02:40:38;;;;;;;7.00;3.10;;;-18.00;99.90;;;;;;4931908;28;20583;-80
2024/01/03 02:43:06;;;;;;;10.53;3.20;;;-18.00;99.90;;;;;;4966981;28;20561;-80
2024/01/03 02:45:33;;;;;;;6.20;2.80;;;-17.90;99.90;;;;;;4935555;28;20218;-79
2024/01/03 02:48:02;;;;;;;6.40;2.93;;;-17.90;99.90;;;;;;4934155;28;20283;-78
2024/01/03 02:50:29;;;;;;;7.23;2.27;;;-17.90;99.90;;;;;;4950010;28;20196;-80
2024/01/03 02:52:56;;;;;;;9.17;2.87;;;-17.90;99.90;;;;;;4969005;28;20211;-80
2024/01/03 02:55:24;;;;;;;5.37;2.63;;;-17.80;99.90;;;;;;4970383;28;20199;-80
2024/01/03 02:57:51;;;;;;;5.60;2.47;;;-18.00;99.90;;;;;;4966415;28;20605;-79
2024/01/03 03:00:19;;;;;;;7.53;2.80;;;-18.20;99.90;;;;;;4966585;28;20200;-82
2024/01/03 03:02:46;;;;;;;8.23;2.30;;;-18.10;99.90;;;;;;4968567;28;20187;-79
2024/01/03 03:05:14;;;;;;;7.53;2.70;;;-18.00;99.90;;;;;;4969017;28;20218;-81
2024/01/03 03:07:41;;;;;;;8.43;2.83;;;-18.30;99.90;;;;;;4966192;28;20204;-78
2024/01/03 03:10:11;;;;;;;7.23;2.87;;;-18.40;99.90;;;;;;4969669;28;20195;-80
2024/01/03 03:12:39;;;;;;;6.13;3.10;;;-18.40;99.90;;;;;;4968918;28;20247;-78
2024/01/03 03:15:07;;;;;;;8.50;2.30;;;-18.30;99.90;;;;;;4968042;28;20192;-79
2024/01/03 03:17:35;;;;;;;9.50;2.77;;;-18.40;99.90;;;;;;4952130;28;20196;-81
2024/01/03 03:20:03;;;;;;;10.03;3.23;;;-18.20;99.90;;;;;;4963265;28;20211;-80
2024/01/03 03:22:30;;;;;;;8.00;2.90;;;-18.40;99.90;;;;;;4969560;28;20203;-80
2024/01/03 03:24:57;;;;;;;7.60;2.90;;;-18.20;99.90;;;;;;4969631;28;20207;-80
2024/01/03 03:27:25;;;;;;;5.90;2.30;;;-18.40;99.90;;;;;;4969655;28;20239;-82
2024/01/03 03:29:53;;;;;;;6.60;2.20;;;-18.10;99.90;;;;;;4969331;28;20184;-79
2024/01/03 03:32:20;;;;;;;4.43;2.23;;;-18.30;99.90;;;;;;4944009;28;20190;-79
2024/01/03 03:34:50;;;;;;;6.93;2.50;;;-18.40;99.90;;;;;;4967156;28;20188;-80
2024/01/03 03:37:18;;;;;;;7.47;2.80;;;-18.60;99.90;;;;;;4966549;28;20188;-80
2024/01/03 03:39:45;;;;;;;7.00;2.70;;;-18.40;99.90;;;;;;4969277;28;20188;-80
2024/01/03 03:42:13;;;;;;;8.60;2.30;;;-18.80;99.90;;;;;;4964643;28;20658;-79
2024/01/03 03:44:40;;;;;;;8.67;3.13;;;-18.60;99.90;;;;;;4943781;28;20195;-80
2024/01/03 03:47:08;;;;;;;7.03;2.20;;;-18.40;99.90;;;;;;4965161;28;20191;-80
2024/01/03 03:49:35;;;;;;;6.77;2.57;;;-18.60;99.90;;;;;;4969322;28;20188;-79
2024/01/03 03:52:03;;;;;;;5.40;2.17;;;-18.10;99.90;;;;;;4962913;28;20192;-80
2024/01/03 03:54:30;;;;;;;7.27;3.00;;;-18.20;99.90;;;;;;4949475;28;20196;-80
2024/01/03 03:56:58;;;;;;;8.50;3.03;;;-18.50;99.90;;;;;;4961624;28;20237;-79
2024/01/03 03:59:25;;;;;;;6.83;2.37;;;-18.20;99.90;;;;;;4942226;29;20295;-80
2024/01/03 04:01:54;;;;;;;8.53;2.93;;;-18.30;99.90;;;;;;4950023;28;20772;-79
2024/01/03 04:04:22;;;;;;;9.57;2.53;;;-18.30;99.90;;;;;;4942957;28;20200;-79
2024/01/03 04:06:49;;;;;;;7.57;2.93;;;-18.20;99.90;;;;;;4949693;28;20200;-80
2024/01/03 04:09:19;;;;;;;7.47;2.43;;;-18.10;99.90;;;;;;4948789;28;20189;-80
2024/01/03 04:11:46;;;;;;;7.27;2.50;;;-18.00;99.90;;;;;;4948396;29;20189;-79
2024/01/03 04:14:14;;;;;;;5.53;2.50;;;-18.30;99.90;;;;;;4948132;29;20216;-80
2024/01/03 04:16:41;;;;;;;6.80;2.63;;;-18.10;99.90;;;;;;4949698;29;20188;-81
2024/01/03 04:19:09;;;;;;;7.67;2.80;;;-18.00;99.90;;;;;;4949716;29;20199;-80
2024/01/03 04:21:36;;;;;;;6.23;2.47;;;-18.20;99.90;;;;;;4932466;29;20199;-79
2024/01/03 04:24:04;;;;;;;5.40;2.70;;;-18.40;99.90;;;;;;4932264;29;20252;-82
2024/01/03 04:26:31;;;;;;;6.33;2.50;;;-18.30;99.90;;;;;;4945298;28;20231;-79
2024/01/03 04:28:59;;;;;;;5.63;2.33;;;-18.20;99.90;;;;;;4950247;28;20196;-80
2024/01/03 04:31:26;;;;;;;8.77;2.90;;;-18.10;99.90;;;;;;4949535;28;20201;-79
2024/01/03 04:33:57;;;;;;;6.17;2.53;;;-18.30;99.90;;;;;;4943980;29;20216;-78
2024/01/03 04:36:24;;;;;;;7.93;2.50;;;-18.40;99.90;;;;;;4953206;28;20560;-79
2024/01/03 04:38:52;;;;;;;8.70;2.50;;;-18.40;99.90;;;;;;4953153;28;20291;-80
2024/01/03 04:41:19;;;;;;;6.50;2.10;;;-18.00;99.90;;;;;;4945384;29;20224;-81
2024/01/03 04:43:47;;;;;;;4.75;1.80;;;-18.00;99.90;;;;;;4951739;28;20196;-82
2024/01/03 04:46:15;;;;;;;5.40;2.00;;;-18.00;99.90;;;;;;4960666;28;20756;-79
2024/01/03 04:48:42;;;;;;;8.13;2.40;;;-18.30;99.90;;;;;;4948615;29;20204;-80
2024/01/03 04:51:10;;;;;;;4.97;2.07;;;-18.10;99.90;;;;;;4964694;28;20205;-81
2024/01/03 04:53:38;;;;;;;6.07;2.57;;;-18.00;99.90;;;;;;4952128;28;20196;-83
2024/01/03 04:56:05;;;;;;;4.67;2.10;;;-18.20;99.90;;;;;;4949197;29;20743;-80
2024/01/03 04:58:33;;;;;;;9.30;2.93;;;-18.30;99.90;;;;;;4952992;29;20297;-80
2024/01/03 05:01:00;;;;;;;7.50;2.90;;;-18.30;99.90;;;;;;4953272;28;20205;-79
2024/01/03 05:03:28;;;;;;;8.93;2.83;;;-18.20;99.90;;;;;;4952924;29;20193;-81
2024/01/03 05:05:55;;;;;;;7.60;2.77;;;-18.60;99.90;;;;;;4952815;29;20279;-80
2024/01/03 05:08:23;;;;;;;7.23;2.53;;;-18.30;99.90;;;;;;4948808;29;20196;-79
2024/01/03 05:10:51;;;;;;;7.50;2.40;;;-18.40;99.90;;;;;;4952537;28;20189;-80
2024/01/03 05:13:18;;;;;;;6.83;2.27;;;-18.60;99.90;;;;;;4942565;28;20196;-79
2024/01/03 05:15:45;;;;;;;6.07;2.30;;;-18.60;99.90;;;;;;4942477;28;20194;-81
2024/01/03 05:18:13;;;;;;;8.27;2.40;;;-18.30;99.90;;;;;;4931964;29;20998;-79
2024/01/03 05:20:41;;;;;;;5.77;2.27;;;-18.30;99.90;;;;;;4952235;29;20201;-80
2024/01/03 05:23:08;;;;;;;6.90;2.17;;;-18.70;99.90;;;;;;4950385;28;20279;-79
2024/01/03 05:25:36;;;;;;;6.30;2.63;;;-18.80;99.90;;;;;;4944882;29;20569;-79
2024/01/03 05:28:04;;;;;;;5.47;2.33;;;-18.60;99.90;;;;;;4935944;29;20252;-81
2024/01/03 05:30:31;;;;;;;9.20;2.80;;;-18.50;99.90;;;;;;4951275;28;20563;-81
2024/01/03 05:32:59;;;;;;;7.97;2.50;;;-18.30;99.90;;;;;;4951932;29;20279;-80
2024/01/03 05:35:26;;;;;;;7.47;2.47;;;-18.40;99.90;;;;;;4947658;29;20219;-80
2024/01/03 05:37:54;;;;;;;5.47;2.57;;;-18.60;99.90;;;;;;4951969;28;20193;-79
2024/01/03 05:40:21;;;;;;;5.80;2.37;;;-18.50;99.90;;;;;;4951697;29;20561;-80
2024/01/03 05:42:49;;;;;;;6.27;2.27;;;-18.50;99.90;;;;;;4949609;28;20196;-79
2024/01/03 05:45:17;;;;;;;7.97;2.53;;;-18.70;99.90;;;;;;4941365;29;20224;-79
2024/01/03 05:47:44;;;;;;;8.80;2.90;;;-18.70;99.90;;;;;;4947181;29;20248;-82
2024/01/03 05:50:12;;;;;;;8.07;2.20;;;-18.70;99.90;;;;;;4947712;29;20197;-81
2024/01/03 05:52:40;;;;;;;8.07;2.57;;;-18.60;99.90;;;;;;4952173;29;20213;-81
2024/01/03 05:55:07;;;;;;;9.07;3.27;;;-18.60;99.90;;;;;;4934412;29;20204;-80
2024/01/03 05:57:35;;;;;;;6.57;2.20;;;-18.50;99.90;;;;;;4967331;28;20271;-81
2024/01/03 06:00:04;;;;;;;10.23;2.80;;;-18.60;99.90;;;;;;4966494;28;20196;-82
2024/01/03 06:02:32;;;;;;;8.17;2.60;;;-18.50;99.90;;;;;;4970498;28;20180;-81
2024/01/03 06:05:00;;;;;;;7.87;2.53;;;-18.40;99.90;;;;;;4971119;28;20202;-80
2024/01/03 06:07:27;;;;;;;8.13;2.13;;;-18.60;99.90;;;;;;4947499;28;20302;-80
2024/01/03 06:09:55;;;;;;;8.00;2.30;;;-19.00;99.90;;;;;;4965968;28;20203;-80
2024/01/03 06:12:23;;;;;;;5.60;1.80;;;-18.70;99.90;;;;;;4969452;28;20935;-81
2024/01/03 06:14:51;;;;;;;6.27;2.07;;;-18.70;99.90;;;;;;4966962;28;20204;-79
2024/01/03 06:17:18;;;;;;;6.83;2.27;;;-18.80;99.90;;;;;;4952176;28;20247;-81
2024/01/03 06:19:46;;;;;;;9.10;2.57;;;-18.70;99.90;;;;;;4970439;28;20692;-80
2024/01/03 06:22:15;;;;;;;8.37;2.87;;;-18.50;99.90;;;;;;4935671;28;20283;-81
2024/01/03 06:24:42;;;;;;;9.20;3.27;;;-18.50;99.90;;;;;;4970320;28;20188;-80
2024/01/03 06:27:09;;;;;;;18.10;2.63;;;-18.50;99.90;;;;;;4952455;28;20207;-78
2024/01/03 06:29:37;;;;;;;7.33;2.33;;;-18.70;99.90;;;;;;4946060;29;20192;-79
2024/01/03 06:32:07;;;;;;;7.07;2.50;;;-18.50;99.90;;;;;;4938089;28;20606;-80
2024/01/03 06:34:35;;;;;;;6.13;2.20;;;-18.70;99.90;;;;;;4952568;28;20560;-79
2024/01/03 06:37:03;;;;;;;14.90;5.50;;;-19.10;99.90;;;;;;4943156;28;20215;-78
2024/01/03 06:39:30;;;;;;;8.80;2.83;;;-18.90;99.90;;;;;;4952147;28;20188;-79
2024/01/03 06:41:58;;;;;;;11.33;4.43;;;-18.60;99.90;;;;;;4969987;28;20944;-82
2024/01/03 06:44:26;;;;;;;8.27;3.00;;;-18.40;99.90;;;;;;4970417;28;20255;-81
2024/01/03 06:46:54;;;;;;;8.87;4.70;;;-18.80;99.90;;;;;;4969518;28;20251;-80
2024/01/03 06:49:22;;;;;;;5.77;2.63;;;-18.90;99.90;;;;;;4969660;28;20270;-80
2024/01/03 06:51:49;;;;;;;6.73;2.53;;;-18.80;99.90;;;;;;4947068;28;20243;-81
2024/01/03 06:54:17;;;;;;;6.50;2.80;;;-18.50;99.90;;;;;;4944792;28;20191;-79
2024/01/03 06:56:44;;;;;;;6.87;2.40;;;-18.40;99.90;;;;;;4942603;28;20238;-80
2024/01/03 06:59:12;;;;;;;7.80;3.27;;;-18.40;99.90;;;;;;4969934;28;20208;-82
2024/01/03 07:01:39;;;;;;;9.90;3.03;;;-18.70;99.90;;;;;;4974197;28;20198;-81
2024/01/03 07:04:07;;;;;;;9.13;2.43;;;-18.70;99.90;;;;;;4942748;28;20203;-81
2024/01/03 07:06:34;;;;;;;7.53;2.30;;;-18.70;99.90;;;;;;4969445;28;20212;-79
2024/01/03 07:09:02;;;;;;;9.80;3.00;;;-18.70;99.90;;;;;;4969820;28;20196;-80
2024/01/03 07:11:29;;;;;;;4.07;2.27;;;-18.70;99.90;;;;;;4969597;28;20188;-79
2024/01/03 07:13:59;;;;;;;6.87;2.93;;;-18.50;99.90;;;;;;4969657;28;20267;-79
2024/01/03 07:16:28;;;;;;;6.67;3.33;;;-18.50;99.90;;;;;;4969449;28;20194;-79
2024/01/03 07:18:56;;;;;;;8.63;2.90;;;-18.60;99.90;;;;;;4969955;28;20547;-81
2024/01/03 07:21:25;;;;;;;7.30;2.90;;;-18.60;99.90;;;;;;4969709;28;20196;-79
2024/01/03 07:23:52;;;;;;;7.27;3.40;;;-18.50;99.90;;;;;;4970442;28;20220;-80
2024/01/03 07:26:21;;;;;;;8.00;2.53;;;-18.40;99.90;;;;;;4969938;28;20294;-80
2024/01/03 07:28:48;;;;;;;15.30;7.80;;;-18.30;99.90;;;;;;4963737;28;20272;-79
2024/01/03 07:31:16;;;;;;;7.27;3.43;;;-18.20;99.90;;;;;;4968539;28;20220;-78
2024/01/03 07:33:43;;;;;;;5.30;2.60;;;-18.40;99.90;;;;;;4969209;28;20195;-79
2024/01/03 07:36:11;;;;;;;10.63;2.90;;;-18.30;99.90;;;;;;4969469;28;20191;-80
2024/01/03 07:38:39;;;;;;;8.07;2.50;;;-18.20;99.90;;;;;;4967088;28;20196;-79
2024/01/03 07:41:06;;;;;;;5.70;2.90;;;-18.30;99.90;;;;;;4949211;28;20284;-79
2024/01/03 07:43:34;;;;;;;6.80;2.50;;;-18.60;99.90;;;;;;4948375;28;20626;-80
2024/01/03 07:46:01;;;;;;;5.93;2.67;;;-18.60;99.90;;;;;;4968099;28;20633;-80
2024/01/03 07:48:29;;;;;;;7.80;2.50;;;-18.70;99.90;;;;;;4969328;28;20219;-79
2024/01/03 07:50:57;;;;;;;7.97;3.53;;;-18.90;99.90;;;;;;4952203;28;20734;-79
2024/01/03 07:53:24;;;;;;;10.27;4.13;;;-18.50;99.90;;;;;;4969234;28;20194;-80
2024/01/03 07:55:53;;;;;;;8.57;3.13;;;-18.60;99.90;;;;;;4968748;28;20184;-80
2024/01/03 07:58:20;;;;;;;8.70;3.57;;;-18.20;99.90;;;;;;4969385;28;20254;-79
2024/01/03 08:00:48;;;;;;;7.77;2.87;;;-18.20;99.90;;;;;;4968654;28;20200;-80
2024/01/03 08:03:15;;;;;;;9.03;2.73;;;-18.30;99.90;;;;;;4968731;28;20666;-79
2024/01/03 08:05:43;;;;;;;4.13;2.43;;;-18.30;99.90;;;;;;4969053;28;20615;-79
2024/01/03 08:08:10;;;;;;;12.63;7.20;;;-18.40;99.90;;;;;;4972478;28;20665;-81
2024/01/03 08:10:38;;;;;;;10.77;7.07;;;-18.40;99.90;;;;;;4972763;28;20242;-80
2024/01/03 08:13:06;;;;;;;9.80;4.00;;;-18.30;99.90;;;;;;4972620;28;20666;-80
2024/01/03 08:15:34;;;;;;;9.53;3.33;;;-18.30;99.90;;;;;;4956740;28;20184;-80
2024/01/03 08:18:01;;;;;;;6.30;2.47;;;-18.60;99.90;;;;;;4972496;28;20286;-80
2024/01/03 08:20:30;;;;;;;8.03;2.60;;;-18.40;99.90;;;;;;4972774;28;20607;-78
2024/01/03 08:22:58;;;;;;;6.73;2.63;;;-18.30;99.90;;;;;;4972716;28;20202;-82
2024/01/03 08:25:26;;;;;;;7.63;2.50;;;-18.20;99.90;;;;;;4968791;28;20666;-79
2024/01/03 08:27:53;;;;;;;17.90;5.10;;;-18.40;99.90;;;;;;4966152;28;20268;-80
2024/01/03 08:30:21;;;;;;;7.13;2.77;;;-18.50;99.90;;;;;;4955026;28;20196;-79
2024/01/03 08:32:48;;;;;;;6.03;2.80;;;-18.50;99.90;;;;;;4971484;28;20203;-82
2024/01/03 08:35:16;;;;;;;8.50;2.33;;;-18.40;99.90;;;;;;4953296;28;20199;-81
2024/01/03 08:37:43;;;;;;;5.07;2.40;;;-18.70;99.90;;;;;;4971144;28;20196;-80
2024/01/03 08:40:11;;;;;;;7.97;2.77;;;-18.90;99.90;;;;;;4952551;28;20427;-78
2024/01/03 08:42:39;;;;;;;7.10;2.70;;;-18.70;99.90;;;;;;4953331;28;20696;-78
2024/01/03 08:45:06;;;;;;;6.83;3.20;;;-18.70;99.90;;;;;;4964410;28;20659;-80
2024/01/03 08:47:34;;;;;;;7.27;2.53;;;-18.80;99.90;;;;;;4953874;28;20314;-82
2024/01/03 08:50:02;;;;;;;5.07;2.70;;;-18.50;99.90;;;;;;4971265;28;20188;-80
2024/01/03 08:52:30;;;;;;;6.60;2.67;;;-18.50;99.90;;;;;;4954736;28;20266;-80
2024/01/03 08:54:59;;;;;;;6.63;2.27;;;-18.60;99.90;;;;;;4952787;28;20682;-80
2024/01/03 08:57:27;;;;;;;7.50;2.33;;;-18.40;99.90;;;;;;4968296;28;20804;-81
2024/01/03 08:59:54;;;;;;;8.43;2.90;;;-18.50;99.90;;;;;;4971525;28;20286;-79
2024/01/03 09:02:21;;;;;;;8.37;2.60;;;-18.40;99.90;;;;;;4971970;28;20192;-81
2024/01/03 09:04:49;;;;;;;7.37;2.63;;;-18.60;99.90;;;;;;4972166;28;20203;-82
2024/01/03 09:07:17;;;;;;;4.90;2.27;;;-18.30;99.90;;;;;;4971781;28;20780;-80
2024/01/03 09:09:45;;;;;;;7.17;2.10;;;-18.30;99.90;;;;;;4953678;28;20188;-79
2024/01/03 09:12:12;;;;;;;8.47;2.87;;;-18.60;99.90;;;;;;4971548;28;20555;-79
2024/01/03 09:14:42;;;;;;;5.23;2.90;;;-18.40;99.90;;;;;;4964211;28;20591;-80
2024/01/03 09:17:09;;;;;;;6.70;2.87;;;-18.60;99.90;;;;;;4951274;28;20650;-79
2024/01/03 09:19:37;;;;;;;9.67;2.47;;;-18.60;99.90;;;;;;4970740;28;20230;-79
2024/01/03 09:22:04;;;;;;;6.57;2.77;;;-18.40;99.90;;;;;;4971436;28;21008;-79
2024/01/03 09:24:32;;;;;;;6.13;2.50;;;-18.30;99.90;;;;;;4971756;28;20192;-78
2024/01/03 09:27:00;;;;;;;9.43;2.53;;;-18.20;99.90;;;;;;4967114;28;20620;-80
2024/01/03 09:29:28;;;;;;;7.57;2.37;;;-18.20;99.90;;;;;;4954433;28;20200;-81
2024/01/03 09:31:58;;;;;;;6.63;2.40;;;-18.40;99.90;;;;;;4971415;28;20195;-80
2024/01/03 09:34:26;;;;;;;8.50;2.57;;;-18.40;99.90;;;;;;4941193;28;20250;-81
2024/01/03 09:36:53;;;;;;;9.80;5.20;;;-18.20;99.90;;;;;;4971356;28;20197;-79
2024/01/03 09:39:21;;;;;;;9.90;4.40;;;-18.10;99.90;;;;;;4945408;28;20672;-81
2024/01/03 09:41:49;;;;;;;9.07;3.53;;;-18.20;99.90;;;;;;4929502;28;20237;-80
2024/01/03 09:44:16;;;;;;;9.00;2.97;;;-18.20;99.90;;;;;;4969427;28;20195;-79
2024/01/03 09:46:48;;;;;;;6.10;2.77;;;-18.30;99.90;;;;;;4971113;28;20207;-81
2024/01/03 09:49:18;;;;;;;6.03;3.00;;;-18.40;99.90;;;;;;4971429;28;20188;-80
2024/01/03 09:51:47;;;;;;;6.97;2.70;;;-18.10;99.90;;;;;;4954079;28;20188;-80
2024/01/03 09:54:15;;;;;;;5.63;2.40;;;-18.00;99.90;;;;;;4970893;28;20199;-79
2024/01/03 09:56:43;;;;;;;5.93;2.80;;;-18.20;99.90;;;;;;4970630;28;20239;-79
2024/01/03 09:59:11;;;;;;;7.50;2.57;;;-18.10;99.90;;;;;;4953195;28;20662;-80
2024/01/03 10:01:38;;;;;;;6.30;2.93;;;-18.20;99.90;;;;;;4971169;28;20199;-80
2024/01/03 10:04:06;;;;;;;6.03;2.30;;;-18.20;99.90;;;;;;4970723;28;20282;-80
2024/01/03 10:06:52;;;;;;;6.93;3.57;;;-18.40;99.90;;;;;;4966887;28;20211;-80
2024/01/03 10:09:19;;;;;;;9.83;5.53;;;-18.10;99.90;;;;;;4953104;28;20199;-82
2024/01/03 10:11:51;;;;;;;8.60;3.60;;;-18.00;99.90;;;;;;4968692;28;20688;-80
2024/01/03 10:14:21;;;;;;;8.20;2.70;;;-18.10;99.90;;;;;;4969946;28;20180;-79
2024/01/03 10:16:49;;;;;;;7.30;2.57;;;-18.10;99.90;;;;;;4970102;28;20191;-81
2024/01/03 10:19:19;;;;;;;7.70;3.40;;;-17.90;99.90;;;;;;4952588;28;20206;-79
2024/01/03 10:21:48;;;;;;;11.43;4.13;;;-17.90;99.90;;;;;;4970154;28;20192;-82
2024/01/03 10:24:16;;;;;;;8.30;2.67;;;-18.20;99.90;;;;;;4969601;28;20206;-79
2024/01/03 10:26:45;;;;;;;7.73;3.30;;;-17.90;99.90;;;;;;4952687;28;20817;-79
2024/01/03 10:29:18;;;;;;;7.67;3.03;;;-17.80;99.90;;;;;;4952181;28;20191;-81
2024/01/03 10:31:47;;;;;;;8.27;3.30;;;-17.90;99.90;;;;;;4965804;28;20279;-80
2024/01/03 10:34:23;;;;;;;10.40;5.30;;;-17.80;99.90;;;;;;4953188;28;20674;-81
2024/01/03 10:36:53;;;;;;;10.53;4.93;;;-17.80;99.90;;;;;;4926999;28;20223;-80
2024/01/03 10:39:22;;;;;;;7.50;3.10;;;-17.80;99.90;;;;;;4967952;28;20651;-81
2024/01/03 10:41:51;;;;;;;5.23;2.37;;;-17.70;99.90;;;;;;4965093;28;20204;-80
2024/01/03 10:44:19;;;;;;;9.23;3.00;;;-17.80;99.90;;;;;;4946307;28;20199;-80
2024/01/03 10:46:49;;;;;;;11.87;5.07;;;-17.80;99.90;;;;;;4941981;28;20239;-80
2024/01/03 10:49:16;;;;;;;7.73;3.10;;;-17.60;99.90;;;;;;4939641;28;20648;-80
2024/01/03 10:51:48;;;;;;;7.97;3.30;;;-17.80;99.90;;;;;;4968692;28;20690;-83
2024/01/03 10:54:20;;;;;;;7.43;3.70;;;-17.70;99.90;;;;;;4970426;28;20608;-80
2024/01/03 10:56:50;;;;;;;5.67;2.90;;;-17.60;99.90;;;;;;4969330;28;20702;-80
2024/01/03 10:59:21;;;;;;;15.13;3.23;;;-17.80;99.90;;;;;;4969816;28;20271;-80
2024/01/03 11:02:30;;;;;;;6.37;2.70;;;-17.50;99.90;;;;;;4969540;28;20190;-82
2024/01/03 11:05:04;;;;;;;9.00;2.70;;;-17.50;99.90;;;;;;4946568;28;20195;-80
2024/01/03 11:07:50;;;;;;;8.50;2.80;;;-17.50;99.90;;;;;;4969447;28;20703;-79
2024/01/03 11:10:51;;;;;;;6.47;2.30;;;-17.40;99.90;;;;;;4967494;28;20287;-77
2024/01/03 11:13:34;;;;;;;6.53;2.40;;;-17.70;99.90;;;;;;4968428;28;20187;-80
2024/01/03 11:16:27;;;;;;;5.07;2.25;;;-17.60;99.90;;;;;;4953667;28;20808;-80
2024/01/03 11:18:59;;;;;;;6.80;2.30;;;-17.60;99.90;;;;;;4966584;28;20195;-80
2024/01/03 11:21:27;;;;;;;9.00;2.60;;;-17.60;99.90;;;;;;4969417;28;20244;-82
2024/01/03 11:23:55;;;;;;;9.33;3.23;;;-17.70;99.90;;;;;;4927469;28;20204;-80
2024/01/03 11:26:54;;;;;;;7.17;2.63;;;-17.50;99.90;;;;;;4943530;28;20220;-79
2024/01/03 11:29:53;;;;;;;11.03;2.80;;;-17.40;99.90;;;;;;4950159;28;20227;-80
2024/01/03 11:32:32;;;;;;;8.60;3.03;;;-17.40;99.90;;;;;;4933200;28;20216;-79
2024/01/03 11:35:08;;;;;;;8.67;3.23;;;-17.40;99.90;;;;;;4966562;28;20192;-80
2024/01/03 11:37:38;;;;;;;8.30;3.00;;;-17.30;99.90;;;;;;4942918;28;20662;-80
2024/01/03 11:40:08;;;;;;;8.17;2.93;;;-17.40;99.90;;;;;;4964047;28;20270;-80
2024/01/03 11:42:41;;;;;;;10.60;3.33;;;-17.60;99.90;;;;;;4972187;28;20203;-82
2024/01/03 11:45:13;;;;;;;10.50;2.27;;;-17.30;99.90;;;;;;4973203;28;20905;-80
2024/01/03 11:47:44;;;;;;;11.00;2.70;;;-17.20;99.90;;;;;;4954639;28;20211;-81
2024/01/03 11:50:14;;;;;;;7.53;2.67;;;-17.20;99.90;;;;;;4965249;28;20224;-80
2024/01/03 11:52:48;;;;;;;7.40;3.50;;;-17.20;99.90;;;;;;4974009;28;20188;-80
2024/01/03 11:55:18;;;;;;;3.90;2.07;;;-17.40;99.90;;;;;;4952089;28;20207;-80
2024/01/03 11:57:48;;;;;;;5.90;2.13;;;-17.30;99.90;;;;;;4973829;28;20668;-79
2024/01/03 12:00:17;;;;;;;7.40;2.80;;;-17.30;99.90;;;;;;4956103;28;20203;-82
2024/01/03 12:02:54;;;;;;;6.73;2.57;;;-17.30;99.90;;;;;;4973269;28;20685;-80
2024/01/03 12:05:27;;;;;;;11.30;2.73;;;-17.00;99.90;;;;;;4972685;28;20188;-80
2024/01/03 12:07:57;;;;;;;7.40;2.80;;;-17.20;99.90;;;;;;4938189;28;20303;-81
2024/01/03 12:10:25;;;;;;;9.23;3.00;;;-17.30;99.90;;;;;;4970320;28;20610;-80
2024/01/03 12:12:53;;;;;;;7.23;2.33;;;-17.40;99.90;;;;;;4952429;28;20223;-80
2024/01/03 12:15:23;;;;;;;6.47;2.67;;;-17.00;99.90;;;;;;4953069;28;20187;-79
2024/01/03 12:18:09;;;;;;;9.13;2.80;;;-16.90;99.90;;;;;;4970987;28;20196;-79
2024/01/03 12:20:37;;;;;;;5.57;2.70;;;-17.00;99.90;;;;;;4944949;28;20189;-81
2024/01/03 12:23:14;;;;;;;5.30;2.47;;;-17.20;99.90;;;;;;4954130;28;20208;-81
2024/01/03 12:25:43;;;;;;;5.20;2.20;;;-17.30;99.90;;;;;;4953717;28;20192;-79
2024/01/03 12:28:18;;;;;;;5.53;2.43;;;-17.10;99.90;;;;;;4971847;28;20981;-79
2024/01/03 12:30:45;;;;;;;6.67;2.70;;;-16.90;99.90;;;;;;4971199;28;20207;-80
2024/01/03 12:33:15;;;;;;;6.63;2.93;;;-16.90;99.90;;;;;;4950438;28;20556;-78
2024/01/03 12:35:48;;;;;;;6.73;2.37;;;-16.90;99.90;;;;;;4939399;28;20196;-80
2024/01/03 12:38:20;;;;;;;6.97;2.60;;;-17.00;99.90;;;;;;4945110;28;20191;-79
2024/01/03 12:40:48;;;;;;;5.17;2.40;;;-16.80;99.90;;;;;;4938137;28;20196;-79
2024/01/03 12:43:15;;;;;;;11.13;3.30;;;-17.00;99.90;;;;;;4957659;28;20227;-80
2024/01/03 12:45:49;;;;;;;9.07;5.47;;;-17.00;99.90;;;;;;4952686;28;20311;-80